Bonaparte, Iowa
Current Conditions -  °F | °C
As of 12:55 AM on Thursday 23 Oct 2014 (Local Time) from KMPZ Reporting Station
Clear Clear  
Wind Chill: 40°   Ceiling: Unl
Heat Index: 44°   Visibility: 10mi
Dew Point: 38°   Wind: 6mph
Humidity: 82%   Direction: 150°SSE
Pressure: 30.18"   Gusts: NA
Location:  40.7°N, 91.8°W
Report Text: KMPZ 230555Z AUTO 15005KT 10SM CLR 07/04 A3018 RMK AO2 T00650036 10104 20062 401680010
Loading
Personal Weather Stations






























Interactive Weather Map
Tropical Storm Tracking
New forecast layout! Learn more

10-Day Weather Forecast

Advertisements
Track Severe Weather on mobile